Time;durP1;ratioP1;P1;durP2;ratioP2;P2;SDS_P1;SDS_P2;PMS_P1;PMS_P2;Temp;Humidity;BMP_temperature;BMP_pressure;BME280_temperature;BME280_humidity;BME280_pressure;Samples;Min_cycle;Max_cycle;Signal;HPM_P1;HPM_P2
2023/01/09 00:00:51;;;;;;;12.90;5.00;;;;;;;-8.82;57.75;100992.98;78244;1291;3025906;-65
2023/01/09 00:03:19;;;;;;;15.30;6.20;;;;;;;-8.55;57.05;100991.55;79613;1291;3012852;-64
2023/01/09 00:05:46;;;;;;;12.50;5.60;;;;;;;-8.60;56.40;100990.16;79718;1293;3011589;-63
2023/01/09 00:08:14;;;;;;;15.50;5.80;;;;;;;-8.82;56.59;100989.42;78540;1295;3052583;-66
2023/01/09 00:10:43;;;;;;;16.70;6.70;;;;;;;-8.97;57.04;100982.66;79759;1295;3013040;-65
2023/01/09 00:13:13;;;;;;;13.60;5.60;;;;;;;-9.24;57.13;100983.86;78682;1295;3026956;-65
2023/01/09 00:15:42;;;;;;;10.70;4.80;;;;;;;-9.49;57.81;100982.79;79632;1293;3011771;-63
2023/01/09 00:18:10;;;;;;;14.60;5.10;;;;;;;-9.61;58.01;100983.76;78367;1296;3029278;-64
2023/01/09 00:20:37;;;;;;;14.20;5.40;;;;;;;-9.71;58.35;100982.97;79581;1292;3018527;-64
2023/01/09 00:23:24;;;;;;;13.80;3.90;;;;;;;-9.79;58.45;100976.50;78444;1295;3050170;-64
2023/01/09 00:26:02;;;;;;;6.70;2.90;;;;;;;-9.85;58.69;100975.55;79562;1294;3020760;-65
2023/01/09 00:28:31;;;;;;;12.40;4.00;;;;;;;-9.09;57.24;100975.52;78416;1293;3069575;-65
2023/01/09 00:30:58;;;;;;;14.30;5.60;;;;;;;-8.55;55.81;100974.86;79647;1292;3020627;-62
2023/01/09 00:33:30;;;;;;;22.40;6.10;;;;;;;-8.63;55.36;100971.02;79490;1291;3011627;-65
2023/01/09 00:35:58;;;;;;;14.80;6.20;;;;;;;-8.80;55.23;100970.29;78314;1296;3053352;-64
2023/01/09 00:38:25;;;;;;;13.90;6.00;;;;;;;-8.96;56.18;100970.64;79615;1296;3013073;-68
2023/01/09 00:40:51;;;;;;;20.80;6.80;;;;;;;-9.11;56.51;100968.15;79688;1293;3011791;-66
2023/01/09 00:43:20;;;;;;;14.60;6.20;;;;;;;-9.30;56.78;100971.55;78256;1292;3028551;-68
2023/01/09 00:45:46;;;;;;;15.80;6.30;;;;;;;-9.40;56.93;100959.92;79749;1292;3019198;-69
2023/01/09 00:48:16;;;;;;;13.40;6.10;;;;;;;-9.52;57.34;100959.74;79625;1295;3011353;-66
2023/01/09 00:50:44;;;;;;;10.00;5.00;;;;;;;-9.63;57.42;100959.27;78475;1293;3053123;-64
2023/01/09 00:53:14;;;;;;;18.20;4.20;;;;;;;-9.81;57.63;100958.06;79658;1296;3013002;-65
2023/01/09 00:55:43;;;;;;;5.80;2.60;;;;;;;-9.78;57.81;100952.33;79028;1294;3011777;-72
2023/01/09 00:58:10;;;;;;;12.60;3.70;;;;;;;-9.17;56.57;100947.16;79851;1296;3012747;-69
2023/01/09 01:00:36;;;;;;;11.50;4.80;;;;;;;-8.67;55.51;100945.52;79553;1291;3011636;-68
2023/01/09 01:03:04;;;;;;;15.10;5.40;;;;;;;-8.59;54.63;100935.98;78499;1291;3024743;-66
2023/01/09 01:08:18;;;;;;;16.00;5.20;;;;;;;-9.14;55.63;100943.89;78479;1294;3050868;-66
2023/01/09 01:10:45;;;;;;;11.20;5.00;;;;;;;-9.32;56.57;100936.67;79438;1296;3013296;-68
2023/01/09 01:13:12;;;;;;;15.40;5.30;;;;;;;-9.56;56.93;100932.57;79564;1291;3013685;-67
2023/01/09 01:15:42;;;;;;;11.00;5.00;;;;;;;-9.80;57.70;100930.33;78222;1293;3049720;-65
2023/01/09 01:18:09;;;;;;;15.50;5.00;;;;;;;-9.87;58.21;100923.56;79588;1293;3013004;-66
2023/01/09 01:20:39;;;;;;;9.00;4.30;;;;;;;-10.05;58.30;100919.70;79478;1291;3011660;-67
2023/01/09 01:23:07;;;;;;;5.40;1.80;;;;;;;-10.21;58.63;100912.71;78493;1292;3050542;-66
2023/01/09 01:25:38;;;;;;;8.60;3.70;;;;;;;-9.61;57.68;100912.69;79689;1296;3013409;-65
2023/01/09 01:28:06;;;;;;;7.20;3.40;;;;;;;-8.99;55.81;100910.23;78200;1295;3069362;-67
2023/01/09 01:30:36;;;;;;;10.60;3.80;;;;;;;-8.95;55.14;100907.86;79423;1296;3018275;-64
2023/01/09 01:33:05;;;;;;;9.30;3.90;;;;;;;-9.14;55.05;100901.46;78848;1291;3011675;-65
2023/01/09 01:35:32;;;;;;;12.20;4.60;;;;;;;-9.25;55.15;100899.63;79437;1294;3014303;-64
2023/01/09 01:37:59;;;;;;;12.70;4.60;;;;;;;-9.57;55.53;100900.82;79415;1294;3011698;-65
2023/01/09 01:40:27;;;;;;;12.90;5.30;;;;;;;-9.88;56.36;100902.34;78388;1296;3026678;-65
2023/01/09 01:42:53;;;;;;;10.40;4.50;;;;;;;-10.05;56.91;100901.05;79631;1291;3012960;-69
2023/01/09 01:45:25;;;;;;;11.30;5.10;;;;;;;-10.19;57.44;100901.79;79543;1291;3013015;-65
2023/01/09 01:47:57;;;;;;;3.50;1.80;;;;;;;-10.18;57.50;100903.84;78143;1293;3057098;-68
2023/01/09 01:50:25;;;;;;;7.50;2.90;;;;;;;-9.93;57.56;100901.95;79679;1292;3011337;-68
2023/01/09 01:53:03;;;;;;;7.00;3.60;;;;;;;-9.23;55.87;100899.58;78432;1293;3053075;-64
2023/01/09 01:55:33;;;;;;;8.80;4.40;;;;;;;-9.04;55.11;100892.85;78188;1294;3049907;-68
2023/01/09 01:58:01;;;;;;;8.10;3.70;;;;;;;-9.12;55.11;100895.59;79647;1295;3013157;-67
2023/01/09 02:00:31;;;;;;;7.60;3.80;;;;;;;-9.26;55.20;100889.23;79114;1296;3011851;-70
2023/01/09 02:02:58;;;;;;;10.40;4.40;;;;;;;-9.57;55.90;100887.60;79695;1295;3012933;-68
2023/01/09 02:05:25;;;;;;;7.60;3.90;;;;;;;-9.85;56.83;100882.98;79361;1291;3011443;-69
2023/01/09 02:07:53;;;;;;;11.60;4.10;;;;;;;-10.02;57.52;100878.66;78338;1293;3050166;-64
2023/01/09 02:10:22;;;;;;;12.00;4.70;;;;;;;-10.14;58.05;100880.49;79583;1294;3012959;-67
2023/01/09 02:12:49;;;;;;;4.70;1.80;;;;;;;-10.32;58.61;100880.52;79624;1296;3013193;-65
2023/01/09 02:15:18;;;;;;;4.20;2.20;;;;;;;-10.08;59.06;100879.06;78542;1294;3053243;-64
2023/01/09 02:18:17;;;;;;;7.90;2.70;;;;;;;-9.28;57.27;100869.98;79519;1297;3013650;-68
2023/01/09 02:20:59;;;;;;;9.00;4.20;;;;;;;-9.01;56.47;100865.13;78410;1296;3056445;-70
2023/01/09 02:23:54;;;;;;;8.40;3.90;;;;;;;-9.21;56.91;100864.16;78311;1295;3049506;-66
2023/01/09 02:26:28;;;;;;;5.90;3.50;;;;;;;-9.44;58.28;100861.15;78306;1292;3052524;-70
2023/01/09 02:29:22;;;;;;;8.50;3.70;;;;;;;-9.67;58.80;100862.05;79691;1294;3011348;-66
2023/01/09 02:31:59;;;;;;;14.50;3.80;;;;;;;-9.82;59.21;100858.52;78483;1296;3051755;-69
2023/01/09 02:34:42;;;;;;;6.70;3.60;;;;;;;-10.12;60.48;100855.98;78366;1292;3052532;-66
2023/01/09 02:37:21;;;;;;;;;;;;;;;-10.08;60.84;100854.64;78365;1292;3068501;-67
2023/01/09 02:39:53;;;;;;;7.10;2.40;;;;;;;-10.15;61.80;100851.97;78450;1296;3051909;-67
2023/01/09 02:42:23;;;;;;;7.20;2.70;;;;;;;-9.37;60.43;100847.05;79462;1294;3013294;-63
2023/01/09 02:44:50;;;;;;;9.60;4.30;;;;;;;-8.94;58.70;100840.98;78268;1293;3048036;-70
2023/01/09 02:47:17;;;;;;;9.20;3.50;;;;;;;-8.97;58.80;100842.05;79597;1292;3020480;-68
2023/01/09 02:50:04;;;;;;;6.60;3.70;;;;;;;-9.19;58.91;100848.61;79518;1294;3011381;-69
2023/01/09 02:52:54;;;;;;;10.10;4.30;;;;;;;-9.47;59.89;100848.66;78318;1297;3053290;-69
2023/01/09 02:55:49;;;;;;;13.10;4.40;;;;;;;-9.71;60.89;100846.61;78351;1296;3068916;-62
2023/01/09 02:58:26;;;;;;;11.90;3.50;;;;;;;-9.86;61.45;100850.86;78075;1293;3052362;-66
2023/01/09 03:01:16;;;;;;;8.50;3.90;;;;;;;-10.05;62.08;100853.44;78381;1293;3056687;-63
2023/01/09 03:04:05;;;;;;;5.90;2.50;;;;;;;-10.26;62.92;100857.91;78359;1295;3050021;-64
2023/01/09 03:06:58;;;;;;;7.80;2.60;;;;;;;-9.90;62.56;100856.46;78448;1294;3055097;-64
2023/01/09 03:09:28;;;;;;;6.80;3.40;;;;;;;-9.22;61.06;100850.36;78396;1293;3049613;-67
2023/01/09 03:11:59;;;;;;;9.90;3.80;;;;;;;-9.00;60.11;100849.05;79564;1296;3011498;-67
2023/01/09 03:14:26;;;;;;;9.10;4.20;;;;;;;-9.03;59.76;100843.17;78437;1293;3050415;-64
2023/01/09 03:16:55;;;;;;;6.60;4.00;;;;;;;-9.14;60.25;100844.09;79737;1297;3019014;-65
2023/01/09 03:19:23;;;;;;;13.70;4.30;;;;;;;-9.30;60.42;100841.04;79795;1293;3012972;-67
2023/01/09 03:21:51;;;;;;;10.30;4.70;;;;;;;-9.61;60.68;100846.53;78212;1294;3048931;-66
2023/01/09 03:24:20;;;;;;;11.30;5.00;;;;;;;-9.87;61.59;100843.71;79558;1297;3011980;-64
2023/01/09 03:26:49;;;;;;;14.20;4.10;;;;;;;-10.06;62.80;100840.66;79019;1296;3013234;-63
2023/01/09 03:29:16;;;;;;;4.10;2.60;;;;;;;-10.20;63.04;100841.38;79708;1296;3020662;-65
2023/01/09 03:31:42;;;;;;;9.20;3.00;;;;;;;-10.10;63.30;100845.56;79537;1294;3011581;-67
2023/01/09 03:34:10;;;;;;;6.30;2.80;;;;;;;-9.34;61.60;100842.22;78484;1292;3027572;-68
2023/01/09 03:36:37;;;;;;;9.50;4.10;;;;;;;-9.23;60.96;100842.17;79530;1294;3013543;-66
2023/01/09 03:39:04;;;;;;;8.50;4.80;;;;;;;-9.10;60.53;100837.95;79762;1294;3011902;-65
2023/01/09 03:41:31;;;;;;;16.90;5.00;;;;;;;-9.22;60.28;100840.69;78358;1293;3025900;-67
2023/01/09 03:43:58;;;;;;;13.00;4.90;;;;;;;-9.56;61.11;100836.89;79746;1294;3013141;-67
2023/01/09 03:46:25;;;;;;;15.30;4.20;;;;;;;-9.74;61.69;100837.14;79632;1293;3011471;-64
2023/01/09 03:48:53;;;;;;;12.60;5.90;;;;;;;-9.93;62.19;100841.44;78929;1292;3027993;-68
2023/01/09 03:51:20;;;;;;;13.50;4.60;;;;;;;-10.09;62.65;100841.91;79979;1293;3013193;-64
2023/01/09 03:53:48;;;;;;;9.00;3.20;;;;;;;-10.21;62.92;100843.07;79855;1291;3011563;-64
2023/01/09 03:56:15;;;;;;;7.90;3.10;;;;;;;-10.24;63.39;100850.70;78407;1294;3049786;-64
2023/01/09 03:58:42;;;;;;;8.60;3.20;;;;;;;-9.61;62.31;100848.40;79640;1295;3019164;-67
2023/01/09 04:01:11;;;;;;;13.70;5.30;;;;;;;-9.32;60.90;100845.90;79709;1293;3011551;-65
2023/01/09 04:03:39;;;;;;;13.70;4.50;;;;;;;-9.22;60.75;100849.69;78277;1292;3050526;-63
2023/01/09 04:06:06;;;;;;;15.30;5.20;;;;;;;-9.37;61.26;100857.20;79748;1295;3013644;-68
2023/01/09 04:08:34;;;;;;;10.00;4.40;;;;;;;-9.71;61.80;100861.86;79766;1294;3011770;-64
2023/01/09 04:11:02;;;;;;;14.30;5.50;;;;;;;-9.88;62.17;100856.21;78409;1296;3050677;-66
2023/01/09 04:13:30;;;;;;;15.00;5.30;;;;;;;-10.07;62.82;100862.46;79780;1296;3013590;-63
2023/01/09 04:15:56;;;;;;;12.80;5.00;;;;;;;-10.12;63.11;100862.80;79764;1294;3011604;-64
2023/01/09 04:18:25;;;;;;;8.80;3.60;;;;;;;-10.43;63.46;100869.16;78423;1295;3052009;-65
2023/01/09 04:20:52;;;;;;;7.20;3.30;;;;;;;-10.34;63.99;100870.93;79739;1294;3020493;-61
2023/01/09 04:23:18;;;;;;;9.80;3.90;;;;;;;-9.66;62.33;100869.72;79813;1293;3013084;-66
2023/01/09 04:25:47;;;;;;;9.70;4.00;;;;;;;-9.40;61.58;100866.75;78573;1295;3025991;-65
2023/01/09 04:28:14;;;;;;;11.60;4.60;;;;;;;-9.27;60.91;100871.88;79766;1296;3012887;-66
2023/01/09 04:30:41;;;;;;;9.20;4.20;;;;;;;-9.36;60.99;100875.06;79752;1296;3011437;-67
2023/01/09 04:33:09;;;;;;;8.70;4.10;;;;;;;-9.53;61.10;100878.09;78319;1295;3052064;-67
2023/01/09 04:35:35;;;;;;;10.90;4.60;;;;;;;-9.77;61.59;100879.26;79806;1293;3018554;-67
2023/01/09 04:38:02;;;;;;;9.10;4.20;;;;;;;-10.04;62.33;100886.20;79693;1291;3012952;-68
2023/01/09 04:40:30;;;;;;;13.00;4.80;;;;;;;-10.18;62.87;100885.73;78539;1296;3026545;-71
2023/01/09 04:42:59;;;;;;;9.30;2.30;;;;;;;-10.33;63.13;100886.05;79768;1295;3011717;-67
2023/01/09 04:45:28;;;;;;;6.20;2.40;;;;;;;-10.22;63.66;100882.34;79244;1294;3011802;-66
2023/01/09 04:47:55;;;;;;;9.50;2.60;;;;;;;-9.32;61.50;100877.29;79746;1295;3013551;-67
2023/01/09 04:50:22;;;;;;;11.60;5.00;;;;;;;-9.03;60.40;100872.37;79573;1293;3013417;-67
2023/01/09 04:52:50;;;;;;;7.90;3.20;;;;;;;-9.09;60.32;100859.39;78384;1296;3025435;-66
2023/01/09 04:55:16;;;;;;;12.30;4.60;;;;;;;-9.36;60.86;100858.59;79686;1296;3012875;-66
2023/01/09 04:57:45;;;;;;;13.50;4.40;;;;;;;-9.48;60.85;100856.91;79753;1294;3011673;-66
2023/01/09 05:00:14;;;;;;;7.40;4.10;;;;;;;-9.80;61.72;100859.48;78580;1291;3052482;-67
2023/01/09 05:02:40;;;;;;;9.90;4.50;;;;;;;-10.02;62.28;100855.95;79702;1294;3014820;-68
2023/01/09 05:05:09;;;;;;;11.90;5.30;;;;;;;-10.21;63.03;100856.26;79753;1291;3011533;-66
2023/01/09 05:07:37;;;;;;;6.30;3.10;;;;;;;-10.34;63.67;100853.84;78373;1296;3049349;-66
2023/01/09 05:10:04;;;;;;;7.50;3.10;;;;;;;-10.24;63.96;100852.42;79770;1292;3013591;-68
2023/01/09 05:12:33;;;;;;;5.60;2.70;;;;;;;-9.42;62.02;100858.89;79770;1291;3011947;-67
2023/01/09 05:15:02;;;;;;;9.10;4.40;;;;;;;-8.90;60.46;100858.29;78575;1296;3052343;-68
2023/01/09 05:17:29;;;;;;;8.60;3.80;;;;;;;-8.96;59.72;100857.38;79779;1292;3012945;-71
2023/01/09 05:19:59;;;;;;;9.10;4.50;;;;;;;-9.09;60.24;100856.50;79242;1292;3011501;-68
2023/01/09 05:22:27;;;;;;;11.50;4.10;;;;;;;-9.27;60.62;100861.52;79630;1293;3019095;-66
2023/01/09 05:24:53;;;;;;;11.60;5.00;;;;;;;-9.51;61.29;100858.52;79539;1296;3013627;-69
2023/01/09 05:27:23;;;;;;;10.10;4.70;;;;;;;-9.78;61.75;100857.67;78636;1296;3050150;-67
2023/01/09 05:29:49;;;;;;;10.30;5.10;;;;;;;-10.03;62.84;100864.70;79782;1296;3013709;-65
2023/01/09 05:32:16;;;;;;;10.50;4.30;;;;;;;-10.17;63.42;100862.21;79631;1296;3011488;-63
2023/01/09 05:34:44;;;;;;;2.70;1.70;;;;;;;-10.26;63.86;100864.85;78264;1296;3029209;-62
2023/01/09 05:37:10;;;;;;;8.10;3.90;;;;;;;-9.69;63.25;100864.81;79659;1296;3020710;-65
2023/01/09 05:39:37;;;;;;;10.40;3.90;;;;;;;-9.00;61.13;100862.64;79605;1291;3011711;-63
2023/01/09 05:42:05;;;;;;;12.70;4.50;;;;;;;-8.99;60.07;100862.48;78308;1295;3028225;-66
2023/01/09 05:44:33;;;;;;;11.10;4.60;;;;;;;-9.41;60.24;100859.39;79649;1295;3012980;-63
2023/01/09 05:47:00;;;;;;;10.60;4.70;;;;;;;-9.64;61.39;100862.67;79620;1294;3011656;-66
2023/01/09 05:49:28;;;;;;;15.40;5.90;;;;;;;-9.70;61.14;100863.26;78401;1296;3050956;-71
2023/01/09 05:51:54;;;;;;;11.70;4.60;;;;;;;-9.92;61.48;100855.71;79799;1296;3013582;-67
2023/01/09 05:54:21;;;;;;;15.60;5.00;;;;;;;-10.30;62.68;100857.73;79740;1291;3013238;-64
2023/01/09 05:56:48;;;;;;;5.80;2.50;;;;;;;-10.47;63.43;100859.16;78588;1296;3026043;-64
2023/01/09 05:59:15;;;;;;;6.50;2.60;;;;;;;-10.26;63.25;100852.64;79758;1296;3011366;-65
2023/01/09 06:01:42;;;;;;;8.90;3.20;;;;;;;-9.49;61.81;100851.79;79756;1292;3013383;-64
2023/01/09 06:04:09;;;;;;;7.40;3.50;;;;;;;-8.97;59.98;100851.75;78497;1296;3028354;-67
2023/01/09 06:06:36;;;;;;;7.70;3.90;;;;;;;-8.97;59.83;100852.23;79575;1296;3013187;-65
2023/01/09 06:09:03;;;;;;;10.70;3.50;;;;;;;-9.12;59.83;100850.10;79526;1293;3012951;-62
2023/01/09 06:11:34;;;;;;;8.70;3.80;;;;;;;-9.67;60.68;100848.65;78491;1297;3028242;-64
2023/01/09 06:14:02;;;;;;;9.10;4.30;;;;;;;-9.71;61.00;100840.16;79707;1297;3013041;-66
2023/01/09 06:16:30;;;;;;;12.00;4.50;;;;;;;-9.80;61.48;100847.08;78334;1296;3025386;-64
2023/01/09 06:18:57;;;;;;;11.20;3.90;;;;;;;-9.84;61.53;100851.11;79759;1296;3013155;-67
2023/01/09 06:21:23;;;;;;;5.40;2.70;;;;;;;-10.04;61.97;100855.50;79776;1291;3011792;-66
2023/01/09 06:23:51;;;;;;;5.60;2.50;;;;;;;-9.98;62.32;100861.70;78370;1294;3025637;-67
2023/01/09 06:26:18;;;;;;;6.90;2.70;;;;;;;-9.16;60.90;100867.73;79518;1292;3012839;-66
2023/01/09 06:28:44;;;;;;;11.10;5.10;;;;;;;-8.68;58.56;100864.61;79532;1296;3013369;-65
2023/01/09 06:31:12;;;;;;;12.60;4.60;;;;;;;-8.74;58.44;100862.34;78521;1291;3025788;-64
2023/01/09 06:33:39;;;;;;;12.70;4.70;;;;;;;-8.92;58.67;100855.98;79729;1296;3013144;-67
2023/01/09 06:36:06;;;;;;;8.90;4.10;;;;;;;-9.24;59.94;100857.25;79301;1291;3011916;-67
2023/01/09 06:38:34;;;;;;;7.60;3.70;;;;;;;-9.26;60.19;100857.67;78191;1296;3028019;-67
2023/01/09 06:41:01;;;;;;;12.80;3.90;;;;;;;-9.32;59.61;100851.65;79594;1294;3021275;-60
2023/01/09 06:43:27;;;;;;;11.10;4.50;;;;;;;-9.52;60.16;100850.14;79372;1295;3013121;-65
2023/01/09 06:45:55;;;;;;;7.20;3.80;;;;;;;-9.59;60.33;100856.27;78036;1296;3026348;-62
2023/01/09 06:48:23;;;;;;;7.90;2.80;;;;;;;-9.58;60.99;100856.82;79261;1296;3013334;-67
2023/01/09 06:50:51;;;;;;;3.90;2.40;;;;;;;-9.32;60.93;100854.88;79450;1292;3011611;-66
2023/01/09 06:53:21;;;;;;;6.90;3.70;;;;;;;-8.57;59.15;100853.83;78242;1296;3049166;-65
2023/01/09 06:55:48;;;;;;;6.50;3.50;;;;;;;-8.22;58.68;100850.70;79523;1295;3013679;-65
2023/01/09 06:58:15;;;;;;;7.30;3.80;;;;;;;-8.35;57.71;100850.58;79643;1294;3011649;-66
2023/01/09 07:00:42;;;;;;;9.50;4.40;;;;;;;-8.58;57.92;100852.42;78286;1297;3026404;-63
2023/01/09 07:03:10;;;;;;;15.10;4.30;;;;;;;-8.79;57.69;100852.46;79669;1294;3013720;-62
2023/01/09 07:05:39;;;;;;;10.00;4.80;;;;;;;-8.70;57.91;100859.92;79921;1293;3011597;-67
2023/01/09 07:08:07;;;;;;;19.30;6.00;;;;;;;-8.92;58.11;100864.31;78644;1292;3048246;-70
2023/01/09 07:10:34;;;;;;;11.50;5.20;;;;;;;-9.18;58.89;100862.58;80083;1291;3013500;-69
2023/01/09 07:13:01;;;;;;;10.70;4.70;;;;;;;-9.29;59.63;100855.21;82187;1294;3011190;-67
2023/01/09 07:15:29;;;;;;;13.50;5.20;;;;;;;-9.26;59.72;100855.15;78512;1295;3052580;-69
2023/01/09 07:17:56;;;;;;;12.70;5.00;;;;;;;-9.34;59.93;100856.51;79628;1295;3013779;-65
2023/01/09 07:20:22;;;;;;;10.50;5.60;;;;;;;-9.35;59.48;100854.05;79571;1293;3012212;-61
2023/01/09 07:22:50;;;;;;;5.10;2.50;;;;;;;-9.32;60.04;100854.19;78546;1294;3026055;-66
2023/01/09 07:25:17;;;;;;;6.00;2.50;;;;;;;-8.97;58.90;100856.33;79727;1296;3015402;-65
2023/01/09 07:27:45;;;;;;;7.50;3.80;;;;;;;-8.18;57.17;100863.77;79791;1295;3011660;-68
2023/01/09 07:30:13;;;;;;;10.70;4.20;;;;;;;-7.66;55.76;100856.29;78506;1295;3050630;-67
2023/01/09 07:32:40;;;;;;;10.20;4.30;;;;;;;-7.61;54.72;100852.23;79598;1296;3012895;-62
2023/01/09 07:35:07;;;;;;;8.90;4.20;;;;;;;-7.62;54.05;100847.09;79609;1293;3013109;-69
2023/01/09 07:37:36;;;;;;;9.70;4.30;;;;;;;-7.82;54.51;100849.45;78553;1297;3050102;-64
2023/01/09 07:40:03;;;;;;;13.80;4.10;;;;;;;-7.90;54.46;100850.87;79708;1293;3013648;-63
2023/01/09 07:42:30;;;;;;;12.30;3.90;;;;;;;-8.02;54.75;100854.98;79697;1295;3013471;-63
2023/01/09 07:44:58;;;;;;;8.70;3.90;;;;;;;-8.06;55.40;100855.70;78352;1296;3026766;-62
2023/01/09 07:47:24;;;;;;;12.70;4.20;;;;;;;-7.94;54.90;100855.15;79563;1296;3013669;-64
2023/01/09 07:49:51;;;;;;;9.20;4.10;;;;;;;-7.96;54.50;100857.45;79561;1292;3011618;-62
2023/01/09 07:52:19;;;;;;;8.80;4.00;;;;;;;-8.03;54.65;100853.44;78350;1296;3026753;-64
2023/01/09 07:54:45;;;;;;;13.10;3.80;;;;;;;-8.00;54.69;100856.27;79648;1296;3013563;-63
2023/01/09 07:57:12;;;;;;;11.10;4.30;;;;;;;-7.95;54.66;100861.05;79656;1296;3011631;-67
2023/01/09 07:59:40;;;;;;;9.60;4.10;;;;;;;-7.99;53.57;100864.31;78255;1296;3026506;-65
2023/01/09 08:02:08;;;;;;;9.80;4.10;;;;;;;-8.12;53.61;100861.94;79630;1296;3012992;-62
2023/01/09 08:04:34;;;;;;;10.60;4.60;;;;;;;-8.03;54.19;100862.44;79727;1294;3012510;-63
2023/01/09 08:07:02;;;;;;;11.50;4.20;;;;;;;-7.92;54.21;100854.70;78466;1293;3048607;-65
2023/01/09 08:09:29;;;;;;;10.10;4.50;;;;;;;-7.79;54.35;100851.76;79563;1293;3021385;-64
2023/01/09 08:11:56;;;;;;;10.70;4.00;;;;;;;-7.63;53.74;100857.09;79832;1295;3011636;-62
2023/01/09 08:14:24;;;;;;;15.10;4.80;;;;;;;-7.75;53.71;100853.60;78524;1295;3025867;-65
2023/01/09 08:16:51;;;;;;;8.70;4.00;;;;;;;-7.67;53.90;100849.30;79630;1294;3013849;-64
2023/01/09 08:19:17;;;;;;;8.30;4.20;;;;;;;-7.48;53.75;100842.13;79584;1293;3011536;-62
2023/01/09 08:21:45;;;;;;;9.00;4.20;;;;;;;-7.42;53.69;100847.27;78476;1297;3024871;-63
2023/01/09 08:24:12;;;;;;;9.00;3.80;;;;;;;-7.40;53.28;100845.98;79616;1296;3012960;-63
2023/01/09 08:26:39;;;;;;;9.80;4.10;;;;;;;-7.26;52.64;100846.60;79588;1294;3013418;-64
2023/01/09 08:29:06;;;;;;;6.70;3.20;;;;;;;-7.16;53.06;100845.08;76777;1295;3028994;-65
2023/01/09 08:31:33;;;;;;;12.40;3.70;;;;;;;-7.18;52.78;100844.18;80027;1292;3013168;-64
2023/01/09 08:34:05;;;;;;;10.20;4.00;;;;;;;-7.14;53.28;100839.17;79235;1292;3013555;-63
2023/01/09 08:36:31;;;;;;;10.60;4.90;;;;;;;-7.13;53.09;100834.95;80243;1292;3013037;-64
2023/01/09 08:38:58;;;;;;;12.00;4.90;;;;;;;-7.14;53.32;100835.60;79893;1291;3013048;-65
2023/01/09 08:47:05;;;;;;;10.40;3.90;;;;;;;-6.44;51.01;100838.18;78531;1294;3053433;-62
2023/01/09 08:49:36;;;;;;;13.90;4.60;;;;;;;-6.47;50.84;100829.86;79547;1296;3011648;-65
2023/01/09 08:52:04;;;;;;;10.90;4.10;;;;;;;-6.49;50.79;100830.48;78750;1294;3052026;-64
2023/01/09 08:54:32;;;;;;;8.00;3.70;;;;;;;-6.40;51.05;100833.16;79655;1293;3013124;-65
2023/01/09 08:56:59;;;;;;;6.10;3.50;;;;;;;-6.35;50.28;100829.90;79798;1295;3013231;-66
2023/01/09 08:59:27;;;;;;;7.90;3.00;;;;;;;-6.20;49.09;100825.06;78569;1297;3048773;-65
2023/01/09 09:01:53;;;;;;;9.00;3.90;;;;;;;-5.99;48.64;100820.17;79522;1296;3013357;-66
2023/01/09 09:04:20;;;;;;;6.40;3.30;;;;;;;-5.85;48.18;100817.83;79619;1294;3011410;-63
2023/01/09 09:06:48;;;;;;;8.90;3.40;;;;;;;-5.74;47.86;100817.59;78432;1293;3024997;-65
2023/01/09 09:09:15;;;;;;;8.80;3.70;;;;;;;-5.67;47.13;100815.73;79819;1292;3012708;-61
2023/01/09 09:11:43;;;;;;;5.20;2.50;;;;;;;-5.55;47.54;100812.66;79539;1294;3011476;-64
2023/01/09 09:16:58;;;;;;;7.90;3.80;;;;;;;-5.34;47.31;100795.77;78415;1296;3052988;-65
2023/01/09 09:19:25;;;;;;;6.80;3.10;;;;;;;-5.31;46.87;100797.89;79783;1291;3013641;-67
2023/01/09 09:21:51;;;;;;;13.90;4.60;;;;;;;-5.28;47.35;100798.66;79684;1296;3011548;-66
2023/01/09 09:24:19;;;;;;;9.40;4.00;;;;;;;-5.19;47.45;100802.63;78674;1291;3026635;-66
2023/01/09 09:26:46;;;;;;;8.20;3.50;;;;;;;-5.09;47.05;100801.16;79810;1293;3013337;-65
2023/01/09 09:29:13;;;;;;;10.00;4.00;;;;;;;-4.97;47.28;100795.14;79690;1296;3011476;-65
2023/01/09 09:31:41;;;;;;;7.50;3.30;;;;;;;-4.92;46.35;100790.98;78460;1296;3027025;-69
2023/01/09 09:34:09;;;;;;;8.30;3.30;;;;;;;-4.79;45.68;100781.36;79781;1295;3013154;-67
2023/01/09 09:36:36;;;;;;;7.70;3.50;;;;;;;-4.65;46.13;100787.16;79915;1295;3013049;-67
2023/01/09 09:39:06;;;;;;;7.40;3.50;;;;;;;-4.64;45.82;100785.46;78621;1294;3057403;-64
2023/01/09 09:44:43;;;;;;;;;;;;;;;-4.34;45.41;100769.18;78638;1293;3054390;-66
2023/01/09 09:50:19;;;;;;;10.60;3.20;;;;;;;-4.28;46.08;100768.11;80448;1292;3012922;-66
2023/01/09 09:53:09;;;;;;;4.90;2.60;;;;;;;-4.16;45.48;100763.23;78217;1298;3053184;-63
2023/01/09 09:55:38;;;;;;;7.00;2.60;;;;;;;-4.08;45.86;100753.96;78571;1298;3050824;-65
2023/01/09 09:58:21;;;;;;;7.00;3.20;;;;;;;-3.92;45.64;100744.01;79500;1298;3013146;-64
2023/01/09 10:00:49;;;;;;;5.70;3.20;;;;;;;-3.87;46.09;100745.98;78308;1295;3068963;-66
2023/01/09 10:03:23;;;;;;;7.60;3.60;;;;;;;-3.86;46.43;100740.34;78510;1292;3039396;-66
2023/01/09 10:05:51;;;;;;;4.70;2.50;;;;;;;-3.76;46.73;100739.15;78526;1295;3049087;-66
2023/01/09 10:08:28;;;;;;;6.50;2.70;;;;;;;-3.61;46.64;100740.29;79830;1292;3014793;-65
2023/01/09 10:10:56;;;;;;;4.70;2.30;;;;;;;-3.45;46.43;100747.41;78509;1297;3053440;-65
2023/01/09 10:16:30;;;;;;;6.40;2.50;;;;;;;-3.50;47.10;100738.40;78717;1298;3068841;-67
2023/01/09 10:19:04;;;;;;;9.70;3.10;;;;;;;-3.50;46.18;100735.50;78575;1292;3050556;-66
2023/01/09 10:21:39;;;;;;;6.60;3.50;;;;;;;-3.73;46.27;100730.65;79694;1292;3011432;-65
2023/01/09 10:24:42;;;;;;;6.00;2.80;;;;;;;-3.53;46.72;100733.05;78369;1292;3048821;-66
2023/01/09 10:27:19;;;;;;;7.50;3.10;;;;;;;-3.29;46.49;100723.16;78574;1297;3053601;-65
2023/01/09 10:30:16;;;;;;;5.00;2.40;;;;;;;-3.07;46.15;100720.77;78547;1292;3050386;-65
2023/01/09 10:32:55;;;;;;;5.70;2.00;;;;;;;-3.12;45.50;100721.38;78470;1298;3053029;-65
2023/01/09 10:35:44;;;;;;;3.90;2.10;;;;;;;-2.91;45.70;100717.21;78544;1295;3052620;-63
2023/01/09 10:38:12;;;;;;;7.70;2.80;;;;;;;-2.69;45.43;100714.78;78587;1293;3069630;-65
2023/01/09 10:40:42;;;;;;;5.50;2.30;;;;;;;-2.67;44.83;100700.58;79772;1292;3013118;-63
2023/01/09 10:43:10;;;;;;;10.50;2.60;;;;;;;-2.68;44.47;100698.34;78410;1297;3049328;-65
2023/01/09 10:45:41;;;;;;;9.40;2.70;;;;;;;-2.73;44.38;100703.56;79796;1294;3013218;-68
2023/01/09 10:48:27;;;;;;;4.60;2.80;;;;;;;-2.55;44.77;100699.35;78599;1297;3053173;-64
2023/01/09 10:50:55;;;;;;;7.40;3.30;;;;;;;-2.46;44.99;100695.69;78388;1291;3052386;-63
2023/01/09 10:53:37;;;;;;;5.00;2.20;;;;;;;-2.57;45.16;100692.80;79840;1296;3013123;-65
2023/01/09 10:56:20;;;;;;;8.10;2.40;;;;;;;-2.36;45.01;100682.94;78634;1292;3056281;-62
2023/01/09 10:58:49;;;;;;;;;;;;;;;-2.26;44.72;100679.79;78597;1292;3049142;-66
2023/01/09 11:01:28;;;;;;;6.10;2.50;;;;;;;-2.26;45.79;100677.21;79925;1292;3015878;-66
2023/01/09 11:04:01;;;;;;;3.70;2.00;;;;;;;-2.23;45.59;100680.17;78577;1297;3052693;-65
2023/01/09 11:06:34;;;;;;;5.50;1.90;;;;;;;-2.29;45.25;100676.67;79746;1298;3012975;-64
2023/01/09 11:09:02;;;;;;;3.50;1.80;;;;;;;-2.24;44.92;100679.47;78404;1297;3068531;-64
2023/01/09 11:11:37;;;;;;;5.10;1.80;;;;;;;-2.10;44.75;100680.14;79519;1295;3013079;-64
2023/01/09 11:14:29;;;;;;;5.10;2.20;;;;;;;-2.03;44.69;100680.73;78371;1292;3050353;-64
2023/01/09 11:17:00;;;;;;;6.40;2.10;;;;;;;-1.91;44.63;100683.76;78360;1298;3052468;-64
2023/01/09 11:19:26;;;;;;;3.00;1.50;;;;;;;-1.94;44.15;100691.46;79814;1298;3011663;-64
2023/01/09 11:22:15;;;;;;;3.90;2.10;;;;;;;-1.81;43.96;100694.33;79074;1297;3013079;-64
2023/01/09 11:24:42;;;;;;;4.50;2.10;;;;;;;-1.77;44.02;100692.65;78377;1296;3052217;-63
2023/01/09 11:27:12;;;;;;;5.10;2.40;;;;;;;-1.69;44.53;100687.41;79622;1292;3015314;-63
2023/01/09 11:29:41;;;;;;;5.60;2.00;;;;;;;-1.66;44.49;100687.25;79043;1298;3013254;-64
2023/01/09 11:32:22;;;;;;;3.80;2.00;;;;;;;-1.57;44.19;100692.49;79789;1292;3011988;-63
2023/01/09 11:34:50;;;;;;;4.00;1.90;;;;;;;-1.58;43.31;100694.55;78328;1296;3053830;-63
2023/01/09 11:37:37;;;;;;;5.80;2.20;;;;;;;-1.56;42.98;100690.61;79796;1297;3011556;-65